Terminal Aerodrome Forecast
Issued by NWS

Home | Current Version | Previous Version | Text Only | Print | Product List | Glossary On
Versions: 1 2 3 4 5 6 7 8 9 10 11 12 13 14 15 16 17
000
FTUS43 KMQT 261502 AAA
TAFIWD
TAF AMD
KIWD 261502Z 2615/2712 VRB03KT 2SM BR BKN003
     FM261700 VRB03KT P6SM BKN008
     FM261900 01005KT 3SM -SHRA BR OVC007
     FM270500 VRB03KT 1SM -DZ BR OVC003
      AMD LTD TO CLD VIS AND WIND=

USA.gov is the U.S. government's official web portal to all federal, state and local government web resources and services.